createdAt,value
2022-10-01T00:02:54.375Z,1.10
2022-10-01T00:17:59.337Z,1.20
2022-10-01T00:33:03.688Z,1.47
2022-10-01T01:03:13.242Z,1.03
2022-10-01T01:18:24.014Z,0.80
2022-10-01T01:33:32.303Z,0.90
2022-10-01T01:48:41.163Z,0.60
2022-10-01T02:03:46.757Z,0.73
2022-10-01T02:18:57.598Z,0.97
2022-10-01T02:34:09.711Z,0.97
2022-10-01T02:49:16.830Z,0.30
2022-10-01T03:04:21.236Z,1.07
2022-10-01T03:19:25.604Z,0.20
2022-10-01T03:49:35.430Z,0.50
2022-10-01T04:04:39.772Z,0.20
2022-10-01T04:34:54.074Z,0.20
2022-10-01T04:49:58.373Z,0.20
2022-10-01T05:20:11.713Z,0.30
2022-10-01T05:35:16.141Z,0.30
2022-10-01T05:50:20.476Z,0.13
2022-10-01T06:20:29.142Z,0.73
2022-10-01T06:35:34.823Z,1.63
2022-10-01T06:50:39.201Z,2.50
2022-10-01T07:05:44.003Z,2.73
2022-10-01T07:20:48.343Z,3.13
2022-10-01T07:35:52.683Z,3.07
2022-10-01T08:06:04.245Z,3.47
2022-10-01T08:21:09.300Z,4.27
2022-10-01T08:36:13.733Z,6.67
2022-10-01T08:51:24.914Z,5.90
2022-10-01T09:06:29.953Z,6.23
2022-10-01T09:21:50.805Z,6.93
2022-10-01T09:37:05.504Z,10.30
2022-10-01T09:52:18.318Z,6.43
2022-10-01T10:07:22.816Z,5.50
2022-10-01T10:22:28.681Z,7.13
2022-10-01T10:37:37.771Z,8.00
2022-10-01T10:52:45.602Z,8.10
2022-10-01T11:07:54.797Z,7.27
2022-10-01T11:23:27.487Z,6.87
2022-10-01T11:38:48.161Z,7.83
2022-10-01T11:53:58.624Z,5.87
2022-10-01T12:09:08.854Z,5.23
2022-10-01T12:24:16.547Z,5.13
2022-10-01T12:39:37.443Z,5.07
2022-10-01T12:54:58.346Z,5.03
2022-10-01T13:10:14.565Z,6.20
2022-10-01T13:25:31.545Z,5.13
2022-10-01T13:40:36.953Z,5.37
2022-10-01T13:55:43.652Z,4.80
2022-10-01T14:11:10.228Z,3.80
2022-10-01T14:26:23.005Z,5.07
2022-10-01T14:41:27.447Z,4.27
2022-10-01T14:56:32.125Z,4.50
2022-10-01T15:11:39.877Z,4.13
2022-10-01T15:26:47.424Z,4.10
2022-10-01T15:41:54.323Z,4.20
2022-10-01T15:56:59.180Z,4.93
2022-10-01T16:12:06.739Z,5.97
2022-10-01T16:27:15.994Z,4.60
2022-10-01T16:42:24.660Z,5.23
2022-10-01T16:57:29.183Z,4.90
2022-10-01T17:12:33.592Z,4.90
2022-10-01T17:27:37.975Z,4.63
2022-10-01T17:42:42.386Z,5.43
2022-10-01T17:57:46.778Z,6.07
2022-10-01T18:12:51.188Z,5.97
2022-10-01T18:27:55.559Z,5.00
2022-10-01T18:43:07.233Z,6.77
2022-10-01T18:58:37.027Z,5.00
2022-10-01T19:13:49.445Z,5.30
2022-10-01T19:29:11.435Z,5.87
2022-10-01T19:44:20.293Z,5.27
2022-10-01T19:59:24.786Z,5.87
2022-10-01T20:14:59.860Z,6.70
2022-10-01T20:30:07.389Z,6.13
2022-10-01T20:45:18.814Z,6.43
2022-10-01T21:00:25.512Z,7.53
2022-10-01T21:15:41.901Z,6.93
2022-10-01T21:31:00.363Z,7.13
2022-10-01T21:46:10.816Z,6.13
2022-10-01T22:01:26.880Z,5.53
2022-10-01T22:16:35.730Z,6.00
2022-10-01T22:31:42.171Z,6.03
2022-10-01T22:47:14.401Z,5.67
2022-10-01T23:02:29.615Z,4.63
2022-10-01T23:17:37.269Z,4.97
2022-10-01T23:32:58.951Z,5.23
2022-10-01T23:48:09.890Z,4.87
